Petropavlovsk-Kamchatskiy, Russia
Current Conditions -  °F | °C
As of 3:30 PM on Sunday 25 Jan 2015 (Local Time) from UHPP Reporting Station
Clear Clear  
Wind Chill: 23°   Ceiling: Unl
Heat Index: 23°   Visibility: 6mi
Dew Point:   Wind: 2mph
Humidity: 54%   Direction: 290°WNW
Pressure: 29.8"   Gusts: NA
Location:  53.02°N, 158.65°E
Report Text: UHPP 250330Z 29001MPS 9999 NSC M05/M13 Q1009 NOSIG RMKQFE753/1005 SC060
Loading
Personal Weather Stations






























Interactive Weather Map New forecast layout! Learn more

10-Day Weather Forecast

Advertisements
Track Severe Weather on mobile